Time;durP1;ratioP1;P1;durP2;ratioP2;P2;SDS_P1;SDS_P2;PMS_P1;PMS_P2;Temp;Humidity;BMP_temperature;BMP_pressure;BME280_temperature;BME280_humidity;BME280_pressure;Samples;Min_cycle;Max_cycle;Signal;HPM_P1;HPM_P2
2023/07/31 00:01:21;;;;;;;1.85;1.27;;;16.50;75.40;;;;;;4938684;28;20034;-62
2023/07/31 00:03:47;;;;;;;3.25;1.45;;;16.50;75.50;;;;;;4940898;28;20042;-62
2023/07/31 00:06:12;;;;;;;3.47;1.50;;;16.50;75.60;;;;;;4940908;28;20032;-62
2023/07/31 00:08:38;;;;;;;1.48;1.33;;;16.50;75.60;;;;;;4939129;28;20067;-62
2023/07/31 00:11:04;;;;;;;1.85;1.50;;;16.50;75.60;;;;;;4942784;28;20114;-63
2023/07/31 00:13:29;;;;;;;2.85;1.60;;;16.50;75.60;;;;;;4941131;28;20039;-63
2023/07/31 00:15:55;;;;;;;2.08;1.50;;;16.50;75.80;;;;;;4941360;28;20047;-61
2023/07/31 00:18:20;;;;;;;2.20;1.48;;;16.50;75.90;;;;;;4937576;28;20038;-61
2023/07/31 00:20:46;;;;;;;3.35;1.60;;;16.50;75.90;;;;;;4937321;28;20054;-63
2023/07/31 00:23:12;;;;;;;3.17;1.70;;;16.50;75.90;;;;;;4940944;28;20500;-62
2023/07/31 00:25:37;;;;;;;2.65;1.60;;;16.50;75.90;;;;;;4940053;28;20114;-62
2023/07/31 00:28:03;;;;;;;3.47;1.60;;;16.50;76.10;;;;;;4938266;28;20050;-63
2023/07/31 00:30:29;;;;;;;2.80;1.63;;;16.50;76.10;;;;;;4939762;28;20168;-62
2023/07/31 00:32:54;;;;;;;3.85;1.70;;;16.50;76.10;;;;;;4939319;28;20047;-62
2023/07/31 00:35:20;;;;;;;1.85;1.40;;;16.40;76.00;;;;;;4940747;28;20055;-63
2023/07/31 00:37:45;;;;;;;2.53;1.67;;;16.40;76.00;;;;;;4938465;28;20660;-61
2023/07/31 00:40:11;;;;;;;3.50;1.80;;;16.30;76.20;;;;;;4939701;28;20050;-61
2023/07/31 00:42:36;;;;;;;2.63;1.75;;;16.20;76.40;;;;;;4940776;28;20034;-62
2023/07/31 00:45:02;;;;;;;1.80;1.50;;;16.20;76.60;;;;;;4940450;29;20044;-63
2023/07/31 00:47:28;;;;;;;1.60;1.50;;;16.10;76.70;;;;;;4938526;28;20569;-62
2023/07/31 00:49:53;;;;;;;2.65;1.42;;;16.10;76.80;;;;;;4940049;28;20322;-61
2023/07/31 00:52:20;;;;;;;2.45;1.52;;;16.10;77.00;;;;;;4939796;28;20399;-63
2023/07/31 00:54:46;;;;;;;1.67;1.30;;;16.10;77.10;;;;;;4938520;28;20122;-62
2023/07/31 00:57:11;;;;;;;2.55;1.45;;;16.10;77.10;;;;;;4936333;28;20119;-62
2023/07/31 00:59:37;;;;;;;1.48;1.20;;;16.10;77.30;;;;;;4938229;28;20031;-62
2023/07/31 01:02:03;;;;;;;4.82;1.58;;;16.10;77.10;;;;;;4941278;28;20031;-62
2023/07/31 01:04:29;;;;;;;3.60;1.45;;;16.10;77.00;;;;;;4938820;28;20134;-63
2023/07/31 01:07:06;;;;;;;1.83;1.40;;;16.10;76.80;;;;;;4938179;28;20126;-63
2023/07/31 01:09:52;;;;;;;1.83;1.33;;;16.10;77.10;;;;;;4940124;28;20716;-60
2023/07/31 01:12:20;;;;;;;3.38;1.30;;;16.10;77.20;;;;;;4941695;28;20076;-63
2023/07/31 01:15:02;;;;;;;2.72;1.50;;;16.10;76.80;;;;;;4939038;28;20031;-63
2023/07/31 01:17:28;;;;;;;2.95;1.48;;;16.10;77.30;;;;;;4940368;28;20031;-63
2023/07/31 01:19:59;;;;;;;2.65;1.50;;;16.10;77.00;;;;;;4938749;29;20046;-62
2023/07/31 01:22:55;;;;;;;2.45;1.45;;;16.20;77.20;;;;;;4940040;28;20065;-59
2023/07/31 01:25:45;;;;;;;1.58;1.40;;;16.20;77.50;;;;;;4937498;28;20046;-63
2023/07/31 01:28:16;;;;;;;2.88;1.40;;;16.10;77.80;;;;;;4938272;28;20047;-63
2023/07/31 01:30:47;;;;;;;3.45;1.30;;;16.10;77.10;;;;;;4935899;28;20043;-61
2023/07/31 01:33:13;;;;;;;2.72;1.77;;;16.00;77.20;;;;;;4938179;28;20039;-63
2023/07/31 01:35:43;;;;;;;1.48;1.38;;;16.00;77.30;;;;;;4939358;29;20095;-62
2023/07/31 01:38:08;;;;;;;2.67;1.48;;;16.00;77.40;;;;;;4927142;28;21728;-62
2023/07/31 01:40:34;;;;;;;2.38;1.50;;;15.90;77.40;;;;;;4937860;28;20050;-63
2023/07/31 01:43:00;;;;;;;3.38;1.70;;;15.90;77.50;;;;;;4939365;28;20040;-63
2023/07/31 01:45:25;;;;;;;3.70;1.40;;;15.90;77.60;;;;;;4938577;28;20044;-63
2023/07/31 01:47:51;;;;;;;3.00;1.33;;;15.80;77.70;;;;;;4938280;28;20526;-63
2023/07/31 01:50:16;;;;;;;1.73;1.45;;;15.80;78.00;;;;;;4939493;28;20059;-63
2023/07/31 01:52:42;;;;;;;1.77;1.45;;;15.80;78.90;;;;;;4937982;28;20420;-63
2023/07/31 01:55:08;;;;;;;2.33;1.65;;;15.80;78.00;;;;;;4939113;29;20126;-60
2023/07/31 01:57:33;;;;;;;1.48;1.33;;;15.80;78.00;;;;;;4937664;28;20035;-62
2023/07/31 01:59:59;;;;;;;3.97;1.58;;;15.80;78.00;;;;;;4937659;28;20039;-62
2023/07/31 02:02:24;;;;;;;1.35;1.25;;;15.80;78.00;;;;;;4938008;28;20036;-61
2023/07/31 02:04:50;;;;;;;1.65;1.48;;;15.70;78.00;;;;;;4937515;28;20580;-62
2023/07/31 02:07:15;;;;;;;1.63;1.38;;;15.70;78.30;;;;;;4936728;28;20051;-63
2023/07/31 02:09:41;;;;;;;5.80;1.40;;;15.70;78.50;;;;;;4937335;28;20036;-63
2023/07/31 02:12:08;;;;;;;1.98;1.55;;;15.70;78.50;;;;;;4938573;28;20035;-61
2023/07/31 02:14:34;;;;;;;4.38;1.80;;;15.70;78.60;;;;;;4937245;28;20530;-63
2023/07/31 02:17:00;;;;;;;2.92;1.50;;;15.70;78.60;;;;;;4939765;28;20024;-62
2023/07/31 02:19:25;;;;;;;3.67;1.50;;;15.70;78.60;;;;;;4937409;28;20259;-62
2023/07/31 02:21:51;;;;;;;2.00;1.33;;;15.70;78.60;;;;;;4939381;28;20039;-61
2023/07/31 02:24:16;;;;;;;2.50;1.50;;;15.70;78.70;;;;;;4938799;28;20046;-62
2023/07/31 02:26:42;;;;;;;2.05;1.60;;;15.70;78.70;;;;;;4937905;28;20415;-64
2023/07/31 02:29:08;;;;;;;1.80;1.50;;;15.70;78.60;;;;;;4938438;28;20158;-63
2023/07/31 02:31:34;;;;;;;4.45;1.60;;;15.70;78.30;;;;;;4938013;28;20408;-63
2023/07/31 02:34:00;;;;;;;2.92;1.40;;;15.70;78.30;;;;;;4939001;28;20055;-62
2023/07/31 02:36:25;;;;;;;1.60;1.30;;;15.60;78.30;;;;;;4938264;28;20043;-61
2023/07/31 02:38:51;;;;;;;2.92;1.67;;;15.60;78.30;;;;;;4936365;28;20023;-63
2023/07/31 02:41:16;;;;;;;1.83;1.05;;;15.50;78.40;;;;;;4938558;28;20399;-62
2023/07/31 02:43:42;;;;;;;2.33;1.33;;;15.40;78.40;;;;;;4938434;28;20058;-63
2023/07/31 02:46:07;;;;;;;1.90;1.10;;;15.40;78.60;;;;;;4937999;28;20056;-62
2023/07/31 02:48:33;;;;;;;3.13;1.40;;;15.30;78.60;;;;;;4936287;28;20066;-62
2023/07/31 02:50:59;;;;;;;4.10;1.42;;;15.30;79.00;;;;;;4935896;28;20043;-62
2023/07/31 02:53:24;;;;;;;2.13;1.50;;;15.20;79.30;;;;;;4937860;28;20043;-61
2023/07/31 02:55:50;;;;;;;1.75;1.40;;;15.30;79.40;;;;;;4938454;28;20039;-63
2023/07/31 02:58:15;;;;;;;1.85;1.38;;;15.30;79.60;;;;;;4937802;28;20035;-61
2023/07/31 03:00:44;;;;;;;2.58;1.50;;;15.30;79.40;;;;;;4937179;28;20090;-63
2023/07/31 03:03:10;;;;;;;1.20;1.10;;;15.30;79.60;;;;;;4935946;28;20042;-62
2023/07/31 03:05:36;;;;;;;2.88;1.30;;;15.30;79.50;;;;;;4937150;28;20036;-62
2023/07/31 03:08:01;;;;;;;3.55;1.67;;;15.30;79.60;;;;;;4935956;28;20051;-63
2023/07/31 03:10:27;;;;;;;1.75;1.40;;;15.30;79.60;;;;;;4939405;28;20039;-62
2023/07/31 03:12:53;;;;;;;2.20;1.33;;;15.30;79.50;;;;;;4937534;28;20036;-63
2023/07/31 03:15:18;;;;;;;1.90;1.30;;;15.20;79.30;;;;;;4935942;28;20554;-63
2023/07/31 03:17:44;;;;;;;2.38;1.55;;;15.30;79.40;;;;;;4935981;28;20051;-62
2023/07/31 03:20:10;;;;;;;2.00;1.52;;;15.20;79.50;;;;;;4937237;28;20500;-63
2023/07/31 03:22:36;;;;;;;1.80;1.25;;;15.20;79.70;;;;;;4938996;28;20066;-63
2023/07/31 03:25:02;;;;;;;2.70;1.52;;;15.20;79.80;;;;;;4937365;28;20491;-62
2023/07/31 03:27:28;;;;;;;3.03;1.60;;;15.20;79.60;;;;;;4938146;28;20043;-61
2023/07/31 03:29:53;;;;;;;2.20;1.42;;;15.20;79.60;;;;;;4938384;28;20032;-61
2023/07/31 03:32:19;;;;;;;3.00;1.50;;;15.20;79.80;;;;;;4939139;28;20524;-62
2023/07/31 03:34:45;;;;;;;2.60;1.50;;;15.10;80.10;;;;;;4935077;28;20256;-63
2023/07/31 03:37:10;;;;;;;1.95;1.65;;;15.10;80.40;;;;;;4936117;28;20031;-63
2023/07/31 03:39:36;;;;;;;2.65;1.70;;;15.10;80.70;;;;;;4935452;28;20031;-63
2023/07/31 03:42:02;;;;;;;3.65;1.52;;;15.10;81.00;;;;;;4936661;28;20168;-62
2023/07/31 03:44:27;;;;;;;2.05;1.50;;;15.10;81.00;;;;;;4936585;28;20035;-63
2023/07/31 03:46:53;;;;;;;1.90;1.70;;;15.20;81.00;;;;;;4936623;28;20070;-60
2023/07/31 03:49:19;;;;;;;2.05;1.63;;;15.20;80.90;;;;;;4937746;28;20040;-62
2023/07/31 03:51:44;;;;;;;2.45;1.73;;;15.30;80.90;;;;;;4937684;28;20039;-62
2023/07/31 03:54:10;;;;;;;3.75;1.85;;;15.30;80.80;;;;;;4935607;28;20032;-61
2023/07/31 03:56:37;;;;;;;2.65;1.83;;;15.40;80.90;;;;;;4937097;28;20182;-63
2023/07/31 03:59:03;;;;;;;4.72;2.03;;;15.40;81.00;;;;;;4921928;29;20035;-62
2023/07/31 04:01:28;;;;;;;2.92;2.03;;;15.50;81.00;;;;;;4936516;28;20039;-62
2023/07/31 04:03:54;;;;;;;3.67;2.15;;;15.50;81.70;;;;;;4939075;28;20447;-61
2023/07/31 04:06:20;;;;;;;2.25;1.92;;;15.50;80.80;;;;;;4935659;28;20131;-62
2023/07/31 04:08:45;;;;;;;2.08;1.58;;;15.40;80.90;;;;;;4921051;28;20036;-62
2023/07/31 04:11:12;;;;;;;2.03;1.80;;;15.40;81.10;;;;;;4941014;28;20500;-62
2023/07/31 04:13:37;;;;;;;2.35;1.70;;;15.50;81.40;;;;;;4941575;28;20054;-62
2023/07/31 04:16:03;;;;;;;2.78;1.90;;;15.50;81.50;;;;;;4940955;28;20031;-61
2023/07/31 04:18:30;;;;;;;2.00;1.80;;;15.60;81.70;;;;;;4941518;28;20574;-63
2023/07/31 04:20:58;;;;;;;2.30;1.90;;;15.50;81.70;;;;;;4942062;28;20176;-61
2023/07/31 04:23:24;;;;;;;2.30;1.83;;;15.60;81.90;;;;;;4942105;28;20034;-63
2023/07/31 04:25:49;;;;;;;2.38;1.52;;;15.60;82.00;;;;;;4941673;28;20128;-62
2023/07/31 04:28:15;;;;;;;3.13;2.00;;;15.60;82.20;;;;;;4941345;28;20134;-62
2023/07/31 04:30:41;;;;;;;2.50;1.70;;;15.70;82.00;;;;;;4943139;28;20201;-62
2023/07/31 04:33:06;;;;;;;3.15;1.60;;;15.70;82.00;;;;;;4941310;28;20472;-62
2023/07/31 04:35:32;;;;;;;2.08;1.85;;;15.70;82.00;;;;;;4940908;28;20044;-61
2023/07/31 04:37:57;;;;;;;5.43;2.20;;;15.80;82.00;;;;;;4941112;28;20491;-61
2023/07/31 04:40:23;;;;;;;2.47;1.70;;;15.80;82.00;;;;;;4942080;28;20039;-62
2023/07/31 04:42:49;;;;;;;2.50;1.40;;;15.90;82.00;;;;;;4940767;28;20040;-62
2023/07/31 04:45:14;;;;;;;3.20;1.65;;;15.90;81.90;;;;;;4941562;28;20415;-63
2023/07/31 04:47:40;;;;;;;1.92;1.50;;;16.00;81.70;;;;;;4940469;28;20119;-62
2023/07/31 04:50:06;;;;;;;3.33;1.70;;;16.00;81.60;;;;;;4940793;28;20043;-62
2023/07/31 04:52:32;;;;;;;3.90;1.73;;;16.00;81.40;;;;;;4940616;28;20129;-63
2023/07/31 04:54:57;;;;;;;3.95;2.40;;;16.10;81.80;;;;;;4940742;28;20083;-62
2023/07/31 04:57:23;;;;;;;3.65;1.73;;;16.10;81.40;;;;;;4940350;28;20443;-62
2023/07/31 04:59:48;;;;;;;4.78;1.90;;;16.10;81.30;;;;;;4940427;28;20038;-62
2023/07/31 05:02:14;;;;;;;2.45;1.83;;;16.20;82.00;;;;;;4939537;28;20046;-62
2023/07/31 05:04:39;;;;;;;5.80;1.90;;;16.20;81.20;;;;;;4940565;28;20581;-62
2023/07/31 05:07:05;;;;;;;4.28;1.70;;;16.20;81.20;;;;;;4940366;28;20050;-62
2023/07/31 05:09:31;;;;;;;2.85;1.85;;;16.20;81.30;;;;;;4939869;28;20120;-63
2023/07/31 05:11:56;;;;;;;2.13;1.88;;;16.30;81.30;;;;;;4942823;28;20106;-63
2023/07/31 05:14:23;;;;;;;1.83;1.73;;;16.30;81.40;;;;;;4940455;28;20039;-61
2023/07/31 05:16:48;;;;;;;2.83;1.80;;;16.30;81.50;;;;;;4940151;28;20042;-63
2023/07/31 05:19:14;;;;;;;3.40;1.55;;;16.40;81.60;;;;;;4939379;28;20027;-63
2023/07/31 05:21:40;;;;;;;2.28;1.65;;;16.40;81.50;;;;;;4941823;28;20039;-62
2023/07/31 05:24:06;;;;;;;1.58;1.33;;;16.50;81.40;;;;;;4940555;28;20057;-62
2023/07/31 05:26:31;;;;;;;1.85;1.55;;;16.60;81.40;;;;;;4939625;28;20090;-61
2023/07/31 05:28:58;;;;;;;3.50;1.60;;;16.60;81.30;;;;;;4939992;28;20122;-63
2023/07/31 05:31:24;;;;;;;3.80;1.30;;;16.60;81.30;;;;;;4939810;28;20035;-63
2023/07/31 05:33:50;;;;;;;2.60;1.52;;;16.60;81.20;;;;;;4941104;28;20039;-61
2023/07/31 05:36:16;;;;;;;3.20;1.70;;;16.70;81.20;;;;;;4940523;28;20040;-62
2023/07/31 05:38:44;;;;;;;2.60;1.67;;;16.70;81.10;;;;;;4939509;28;20062;-60
2023/07/31 05:41:09;;;;;;;2.53;1.80;;;16.70;81.30;;;;;;4940513;28;20118;-62
2023/07/31 05:43:35;;;;;;;2.88;1.50;;;16.70;81.50;;;;;;4939876;29;20186;-63
2023/07/31 05:46:01;;;;;;;2.13;1.70;;;16.80;81.70;;;;;;4940283;28;20038;-62
2023/07/31 05:48:27;;;;;;;3.55;1.70;;;16.80;81.70;;;;;;4939834;29;20062;-63
2023/07/31 05:50:52;;;;;;;2.75;1.38;;;16.90;81.70;;;;;;4938721;28;20032;-61
2023/07/31 05:53:18;;;;;;;2.63;1.70;;;16.90;81.50;;;;;;4939753;28;20054;-60
2023/07/31 05:55:43;;;;;;;4.18;1.60;;;17.00;81.50;;;;;;4940157;28;20059;-61
2023/07/31 05:58:09;;;;;;;2.55;1.73;;;17.10;81.50;;;;;;4940004;28;20031;-62
2023/07/31 06:00:35;;;;;;;4.32;1.40;;;17.10;81.50;;;;;;4939760;28;20051;-62
2023/07/31 06:03:00;;;;;;;2.50;1.80;;;17.10;81.30;;;;;;4938367;28;20035;-62
2023/07/31 06:05:28;;;;;;;6.32;1.80;;;17.20;81.30;;;;;;4938190;28;20102;-60
2023/07/31 06:07:53;;;;;;;3.45;2.03;;;17.20;81.60;;;;;;4939880;29;20055;-63
2023/07/31 06:10:19;;;;;;;1.65;1.55;;;17.30;81.90;;;;;;4941239;28;20565;-61
2023/07/31 06:12:44;;;;;;;4.00;1.65;;;17.30;81.50;;;;;;4939305;28;20038;-62
2023/07/31 06:15:11;;;;;;;3.78;1.77;;;17.40;81.30;;;;;;4939016;28;20028;-61
2023/07/31 06:17:36;;;;;;;2.90;1.42;;;17.50;81.60;;;;;;4939778;28;20519;-62
2023/07/31 06:20:05;;;;;;;2.40;1.30;;;17.50;81.50;;;;;;4939109;28;20063;-63
2023/07/31 06:22:30;;;;;;;1.63;1.30;;;17.60;80.90;;;;;;4938858;28;20039;-63
2023/07/31 06:24:56;;;;;;;3.60;1.55;;;17.70;80.40;;;;;;4940548;28;20168;-62
2023/07/31 06:27:22;;;;;;;5.22;1.20;;;17.80;80.20;;;;;;4940071;28;20035;-62
2023/07/31 06:29:47;;;;;;;3.70;1.20;;;17.80;80.00;;;;;;4941384;28;20032;-62
2023/07/31 06:32:13;;;;;;;4.75;1.55;;;18.00;79.80;;;;;;4939986;28;20078;-61
2023/07/31 06:34:39;;;;;;;3.00;1.15;;;18.00;79.30;;;;;;4938681;28;20032;-62
2023/07/31 06:37:05;;;;;;;2.70;1.20;;;18.10;78.60;;;;;;4938815;28;20063;-62
2023/07/31 06:39:30;;;;;;;1.73;1.20;;;18.20;77.80;;;;;;4937821;28;20105;-63
2023/07/31 06:41:56;;;;;;;2.05;1.42;;;18.30;77.20;;;;;;4923270;28;20553;-61
2023/07/31 06:44:21;;;;;;;3.53;1.25;;;18.40;76.80;;;;;;4941037;28;20721;-62
2023/07/31 06:46:47;;;;;;;3.47;1.30;;;18.50;76.50;;;;;;4939298;28;20113;-63
2023/07/31 06:49:15;;;;;;;3.33;1.30;;;18.60;76.20;;;;;;4937680;28;22008;-62
2023/07/31 06:51:41;;;;;;;4.20;1.10;;;18.70;75.90;;;;;;4939374;28;20153;-62
2023/07/31 06:54:07;;;;;;;4.70;1.27;;;18.70;75.40;;;;;;4940330;28;20035;-62
2023/07/31 06:56:33;;;;;;;2.65;1.20;;;18.80;74.60;;;;;;4937862;28;20035;-62
2023/07/31 06:58:58;;;;;;;2.47;1.30;;;18.90;74.50;;;;;;4939065;28;20571;-61
2023/07/31 07:01:24;;;;;;;2.85;1.00;;;18.90;74.00;;;;;;4939407;28;20112;-60
2023/07/31 07:03:50;;;;;;;3.83;1.48;;;19.00;73.20;;;;;;4938360;28;20376;-62
2023/07/31 07:06:17;;;;;;;2.88;1.38;;;19.10;72.90;;;;;;4938859;28;20097;-62
2023/07/31 07:08:43;;;;;;;3.67;1.25;;;19.10;72.60;;;;;;4938156;28;20035;-62
2023/07/31 07:11:09;;;;;;;4.72;1.35;;;19.20;72.60;;;;;;4941602;28;20053;-63
2023/07/31 07:13:34;;;;;;;2.33;1.23;;;19.20;72.10;;;;;;4938713;28;20044;-62
2023/07/31 07:16:00;;;;;;;2.50;1.10;;;19.30;72.00;;;;;;4927171;28;20575;-62
2023/07/31 07:18:25;;;;;;;3.25;1.40;;;19.30;71.60;;;;;;4938439;28;20027;-62
2023/07/31 07:20:53;;;;;;;2.10;1.30;;;19.40;71.60;;;;;;4939489;28;20035;-62
2023/07/31 07:23:20;;;;;;;2.70;1.20;;;19.40;71.60;;;;;;4938334;28;20050;-63
2023/07/31 07:25:46;;;;;;;2.17;1.10;;;19.40;71.40;;;;;;4938605;28;20103;-62
2023/07/31 07:28:12;;;;;;;3.53;1.35;;;19.50;71.10;;;;;;4938305;28;20039;-62
2023/07/31 07:30:38;;;;;;;2.85;1.20;;;19.50;70.90;;;;;;4938450;28;20046;-62
2023/07/31 07:33:04;;;;;;;3.28;1.33;;;19.60;70.40;;;;;;4941978;28;20036;-61
2023/07/31 07:35:29;;;;;;;2.65;1.15;;;19.60;69.90;;;;;;4943125;28;20035;-61
2023/07/31 07:37:55;;;;;;;4.28;1.40;;;19.70;69.60;;;;;;4941261;28;20126;-63
2023/07/31 07:40:21;;;;;;;1.35;1.00;;;19.80;69.30;;;;;;4942772;28;20040;-62
2023/07/31 07:42:47;;;;;;;3.60;1.17;;;19.80;69.20;;;;;;4941639;28;20047;-63
2023/07/31 07:45:12;;;;;;;4.75;1.70;;;19.80;68.60;;;;;;4942147;28;20057;-62
2023/07/31 07:47:40;;;;;;;4.47;1.25;;;19.90;68.40;;;;;;4942724;28;20032;-62
2023/07/31 07:50:06;;;;;;;1.95;1.00;;;19.90;67.80;;;;;;4942123;29;20130;-63
2023/07/31 07:52:32;;;;;;;2.22;1.00;;;19.90;67.90;;;;;;4941361;28;20031;-62
2023/07/31 07:54:57;;;;;;;1.55;0.95;;;20.00;68.00;;;;;;4942796;28;20402;-60
2023/07/31 07:57:23;;;;;;;3.15;1.27;;;20.00;68.10;;;;;;4940526;28;20089;-62
2023/07/31 07:59:48;;;;;;;2.25;1.08;;;20.00;67.90;;;;;;4942738;28;20028;-63
2023/07/31 08:02:14;;;;;;;5.93;1.10;;;20.10;67.60;;;;;;4938657;28;20051;-61
2023/07/31 08:04:39;;;;;;;2.53;1.27;;;20.20;67.40;;;;;;4943427;28;20073;-62
2023/07/31 08:07:05;;;;;;;2.88;1.13;;;20.30;67.10;;;;;;4943190;28;21193;-62
2023/07/31 08:09:31;;;;;;;2.67;1.40;;;20.40;66.70;;;;;;4943076;28;20077;-61
2023/07/31 08:12:01;;;;;;;3.03;1.20;;;20.40;67.10;;;;;;4946068;28;20035;-63
2023/07/31 08:14:27;;;;;;;1.35;0.85;;;20.50;66.90;;;;;;4942336;28;20023;-62
2023/07/31 08:16:53;;;;;;;4.55;1.10;;;20.60;66.10;;;;;;4943924;28;20112;-62
2023/07/31 08:19:18;;;;;;;3.15;1.10;;;20.70;65.60;;;;;;4944387;28;20079;-63
2023/07/31 08:21:44;;;;;;;1.67;1.05;;;20.80;64.60;;;;;;4943508;29;20115;-62
2023/07/31 08:24:09;;;;;;;3.47;1.17;;;20.80;64.10;;;;;;4943995;28;20027;-62
2023/07/31 08:26:35;;;;;;;2.20;0.82;;;20.90;64.00;;;;;;4943840;28;20114;-62
2023/07/31 08:29:01;;;;;;;2.05;1.15;;;20.90;64.30;;;;;;4944454;28;20304;-61
2023/07/31 08:31:26;;;;;;;3.30;1.08;;;21.00;64.10;;;;;;4942380;28;20058;-61
2023/07/31 08:33:52;;;;;;;3.50;0.95;;;21.10;63.80;;;;;;4943958;28;20039;-63
2023/07/31 08:36:18;;;;;;;2.08;1.10;;;21.10;63.80;;;;;;4941836;28;20048;-62
2023/07/31 08:38:45;;;;;;;2.78;1.13;;;21.20;63.60;;;;;;4941082;28;20086;-62
2023/07/31 08:41:10;;;;;;;4.03;1.30;;;21.20;63.40;;;;;;4942602;28;20047;-63
2023/07/31 08:43:37;;;;;;;2.70;1.42;;;21.30;62.90;;;;;;4941766;28;20066;-62
2023/07/31 08:46:04;;;;;;;4.75;1.00;;;21.40;62.80;;;;;;4943222;28;20098;-62
2023/07/31 08:48:31;;;;;;;3.60;1.13;;;21.40;62.70;;;;;;4941120;28;20039;-61
2023/07/31 08:50:57;;;;;;;5.75;1.33;;;21.50;62.40;;;;;;4941490;28;20411;-62
2023/07/31 08:53:23;;;;;;;1.67;0.98;;;21.60;62.20;;;;;;4942469;28;20039;-61
2023/07/31 08:55:49;;;;;;;2.30;1.00;;;21.70;61.60;;;;;;4941808;28;20035;-62
2023/07/31 08:58:15;;;;;;;3.47;1.13;;;21.80;61.40;;;;;;4942186;28;20389;-62
2023/07/31 09:00:43;;;;;;;3.03;1.10;;;21.80;60.30;;;;;;4941330;28;20036;-63
2023/07/31 09:03:13;;;;;;;2.85;1.27;;;21.90;59.40;;;;;;4942051;28;20625;-62
2023/07/31 09:05:42;;;;;;;3.45;1.05;;;21.90;59.40;;;;;;4942151;28;20115;-61
2023/07/31 09:08:09;;;;;;;2.50;1.00;;;21.90;59.60;;;;;;4941574;28;20412;-62
2023/07/31 09:10:35;;;;;;;2.20;0.98;;;21.90;59.70;;;;;;4943200;28;20039;-61
2023/07/31 09:13:02;;;;;;;3.17;1.08;;;22.00;60.10;;;;;;4924907;29;20426;-62
2023/07/31 09:15:28;;;;;;;2.15;0.95;;;22.10;60.10;;;;;;4930942;29;20665;-63
2023/07/31 09:18:03;;;;;;;4.20;1.10;;;22.20;59.30;;;;;;4941418;28;20047;-63
2023/07/31 09:20:28;;;;;;;2.17;1.10;;;22.30;59.10;;;;;;4942221;28;20036;-62
2023/07/31 09:22:55;;;;;;;2.95;1.10;;;22.40;59.40;;;;;;4942097;28;20057;-63
2023/07/31 09:25:25;;;;;;;3.00;1.30;;;22.40;59.00;;;;;;4942631;29;20047;-62
2023/07/31 09:27:58;;;;;;;2.33;1.08;;;22.50;58.30;;;;;;4942497;28;20123;-63
2023/07/31 09:30:24;;;;;;;4.03;1.20;;;22.50;58.80;;;;;;4941129;28;20051;-63
2023/07/31 09:32:51;;;;;;;4.97;1.38;;;22.60;58.70;;;;;;4941762;28;20050;-64
2023/07/31 09:35:31;;;;;;;1.95;0.98;;;22.60;58.70;;;;;;4941295;28;20043;-61
2023/07/31 09:38:08;;;;;;;4.32;1.23;;;22.70;58.10;;;;;;4939971;28;20122;-61
2023/07/31 09:40:36;;;;;;;4.97;1.20;;;22.70;58.00;;;;;;4941631;28;20045;-63
2023/07/31 09:43:06;;;;;;;2.15;1.10;;;22.80;58.50;;;;;;4941154;28;20139;-62
2023/07/31 09:45:36;;;;;;;2.40;1.00;;;22.90;58.40;;;;;;4940429;28;20063;-61
2023/07/31 09:48:02;;;;;;;2.55;1.10;;;23.00;58.50;;;;;;4941207;28;20459;-61
2023/07/31 09:50:29;;;;;;;2.45;1.20;;;23.00;58.00;;;;;;4940535;28;20035;-62
2023/07/31 09:52:55;;;;;;;3.35;1.10;;;23.10;58.30;;;;;;4942662;28;20044;-62
2023/07/31 09:55:20;;;;;;;3.03;1.00;;;23.20;57.60;;;;;;4940954;28;20109;-62
2023/07/31 09:57:49;;;;;;;2.75;1.10;;;23.30;57.20;;;;;;4940218;28;20067;-63
2023/07/31 10:00:18;;;;;;;3.35;0.75;;;23.40;56.70;;;;;;4942204;28;20591;-63
2023/07/31 10:02:46;;;;;;;3.88;1.20;;;23.40;56.60;;;;;;4940227;28;20079;-63
2023/07/31 10:05:16;;;;;;;1.98;1.00;;;23.50;56.20;;;;;;4939934;28;20038;-60
2023/07/31 10:07:49;;;;;;;1.98;1.13;;;23.50;56.20;;;;;;4940883;28;20142;-63
2023/07/31 10:10:16;;;;;;;1.35;1.00;;;23.50;56.60;;;;;;4941814;28;20036;-63
2023/07/31 10:12:43;;;;;;;4.85;1.30;;;23.50;56.70;;;;;;4941443;28;20053;-62
2023/07/31 10:15:09;;;;;;;3.58;1.65;;;23.60;56.60;;;;;;4939602;28;20036;-63
2023/07/31 10:17:36;;;;;;;3.45;1.38;;;23.60;56.90;;;;;;4941999;28;20027;-63
2023/07/31 10:20:04;;;;;;;3.80;1.48;;;23.60;54.70;;;;;;4942324;28;20082;-62
2023/07/31 10:22:31;;;;;;;2.42;1.10;;;23.60;56.00;;;;;;4941209;28;20491;-63
2023/07/31 10:24:58;;;;;;;3.03;1.08;;;23.70;55.80;;;;;;4941864;29;20571;-63
2023/07/31 10:27:24;;;;;;;2.78;1.20;;;23.70;55.40;;;;;;4940949;28;20521;-64
2023/07/31 10:29:51;;;;;;;2.17;1.05;;;23.80;55.30;;;;;;4941834;28;20043;-63
2023/07/31 10:32:18;;;;;;;4.07;1.15;;;23.80;54.80;;;;;;4941274;28;20571;-61
2023/07/31 10:34:44;;;;;;;5.40;1.42;;;23.80;55.20;;;;;;4939618;28;20595;-62
2023/07/31 10:37:48;;;;;;;3.90;1.20;;;23.80;55.00;;;;;;4939836;28;20040;-63
2023/07/31 10:40:25;;;;;;;3.38;1.23;;;23.90;53.90;;;;;;4940199;28;20072;-61
2023/07/31 10:42:57;;;;;;;2.30;1.30;;;24.00;54.10;;;;;;4940872;28;20054;-63
2023/07/31 10:45:41;;;;;;;3.63;1.10;;;24.00;54.70;;;;;;4940401;28;20057;-63
2023/07/31 10:48:13;;;;;;;2.30;1.07;;;24.00;53.70;;;;;;4940709;28;20126;-63
2023/07/31 10:50:46;;;;;;;2.63;1.20;;;24.10;54.20;;;;;;4940411;28;20294;-63
2023/07/31 10:53:30;;;;;;;3.10;1.35;;;24.10;54.60;;;;;;4940451;28;20046;-63
2023/07/31 10:56:07;;;;;;;4.53;1.23;;;24.10;54.50;;;;;;4942015;28;20032;-63
2023/07/31 10:58:33;;;;;;;1.13;1.00;;;24.10;54.30;;;;;;4939612;28;20039;-62
2023/07/31 11:01:02;;;;;;;3.67;1.10;;;24.20;53.50;;;;;;4940020;28;20420;-63
2023/07/31 11:03:51;;;;;;;4.20;1.60;;;24.10;53.50;;;;;;4939836;28;20668;-62
2023/07/31 11:06:18;;;;;;;2.35;1.25;;;24.10;53.50;;;;;;4942251;28;20040;-62
2023/07/31 11:08:45;;;;;;;3.30;1.40;;;24.10;54.30;;;;;;4942899;28;20051;-63
2023/07/31 11:11:13;;;;;;;3.53;1.27;;;24.10;53.80;;;;;;4946085;28;20500;-64
2023/07/31 11:13:43;;;;;;;3.30;1.27;;;24.00;53.60;;;;;;4943951;29;20047;-63
2023/07/31 11:16:10;;;;;;;3.03;1.15;;;24.00;54.30;;;;;;4943598;28;20038;-63
2023/07/31 11:18:39;;;;;;;1.65;1.40;;;24.00;54.50;;;;;;4943356;28;20040;-63
2023/07/31 11:21:05;;;;;;;4.63;1.38;;;23.90;54.40;;;;;;4944624;28;20125;-64
2023/07/31 11:23:30;;;;;;;2.08;1.25;;;23.90;54.70;;;;;;4944004;28;20169;-63
2023/07/31 11:26:00;;;;;;;2.85;1.10;;;23.90;54.80;;;;;;4944601;28;20526;-62
2023/07/31 11:28:25;;;;;;;2.75;1.10;;;23.90;54.90;;;;;;4943857;28;20039;-63
2023/07/31 11:30:51;;;;;;;1.60;1.00;;;23.90;54.80;;;;;;4942786;28;20095;-63
2023/07/31 11:33:17;;;;;;;2.60;1.20;;;24.00;55.50;;;;;;4943794;29;20044;-63
2023/07/31 11:35:48;;;;;;;2.88;1.27;;;24.10;55.20;;;;;;4944869;28;20534;-63
2023/07/31 11:38:25;;;;;;;2.45;0.90;;;24.10;54.70;;;;;;4943608;29;20039;-63
2023/07/31 11:40:55;;;;;;;2.60;1.10;;;24.10;55.00;;;;;;4945300;28;20032;-63
2023/07/31 11:43:21;;;;;;;2.72;1.17;;;24.20;55.40;;;;;;4943618;28;20091;-62
2023/07/31 11:45:49;;;;;;;3.28;1.30;;;24.30;55.60;;;;;;4944685;28;20042;-62
2023/07/31 11:48:28;;;;;;;2.10;1.20;;;24.30;55.70;;;;;;4942765;28;20058;-63
2023/07/31 11:50:57;;;;;;;1.83;1.10;;;24.40;55.00;;;;;;4942580;28;20142;-63
2023/07/31 11:53:50;;;;;;;2.63;1.23;;;24.60;55.40;;;;;;4944791;28;20170;-63
2023/07/31 11:56:19;;;;;;;3.45;1.20;;;24.70;54.40;;;;;;4944343;28;20036;-62
2023/07/31 11:58:47;;;;;;;1.70;1.20;;;24.80;54.80;;;;;;4942778;28;20122;-63
2023/07/31 12:01:15;;;;;;;2.13;1.20;;;24.90;54.40;;;;;;4942939;28;20062;-63
2023/07/31 12:03:42;;;;;;;5.93;1.70;;;25.00;54.40;;;;;;4942282;28;20047;-63
2023/07/31 12:06:08;;;;;;;3.78;1.40;;;25.10;54.30;;;;;;4944936;28;20066;-62
2023/07/31 12:08:34;;;;;;;3.63;1.40;;;25.20;54.20;;;;;;4943123;28;20059;-63
2023/07/31 12:11:04;;;;;;;4.20;1.40;;;25.30;53.50;;;;;;4944314;28;20447;-63
2023/07/31 12:13:32;;;;;;;3.88;1.38;;;25.30;52.30;;;;;;4942672;28;20043;-63
2023/07/31 12:15:59;;;;;;;3.38;1.40;;;25.40;53.00;;;;;;4940871;28;20043;-62
2023/07/31 12:18:27;;;;;;;3.05;1.23;;;25.40;52.80;;;;;;4942644;28;20494;-63
2023/07/31 12:21:00;;;;;;;1.67;1.30;;;25.40;52.70;;;;;;4942514;29;20066;-63
2023/07/31 12:23:29;;;;;;;4.88;1.75;;;25.40;52.30;;;;;;4943622;28;20039;-62
2023/07/31 12:26:07;;;;;;;4.32;1.60;;;25.40;52.40;;;;;;4944630;28;20035;-63
2023/07/31 12:28:38;;;;;;;2.65;1.27;;;25.50;52.50;;;;;;4942844;28;20423;-63
2023/07/31 12:31:04;;;;;;;5.07;1.13;;;25.50;52.20;;;;;;4943099;28;20042;-63
2023/07/31 12:33:35;;;;;;;1.88;1.23;;;25.50;52.70;;;;;;4942830;28;20035;-63
2023/07/31 12:36:03;;;;;;;3.47;1.30;;;25.50;52.10;;;;;;4942097;28;20085;-62
2023/07/31 12:38:29;;;;;;;2.83;1.25;;;25.50;53.30;;;;;;4941499;28;20046;-63
2023/07/31 12:40:55;;;;;;;5.25;1.45;;;25.60;52.60;;;;;;4942215;29;20523;-63
2023/07/31 12:43:21;;;;;;;4.95;1.42;;;25.60;52.40;;;;;;4943540;28;20047;-63
2023/07/31 12:45:47;;;;;;;3.63;1.23;;;25.60;52.10;;;;;;4942124;28;20046;-63
2023/07/31 12:48:13;;;;;;;4.07;1.50;;;25.60;51.90;;;;;;4942410;28;20035;-63